createdAt,value
2019-03-27T00:01:36.590Z,102255.92
2019-03-27T00:04:10.044Z,102252.70
2019-03-27T00:06:43.426Z,102248.14
2019-03-27T00:09:16.813Z,102249.16
2019-03-27T00:11:50.304Z,102252.03
2019-03-27T00:14:23.695Z,102248.69
2019-03-27T00:16:57.165Z,102244.70
2019-03-27T00:19:30.665Z,102242.28
2019-03-27T00:22:04.129Z,102242.28
2019-03-27T00:24:37.591Z,102239.85
2019-03-27T00:27:11.001Z,102235.32
2019-03-27T00:29:44.510Z,102230.66
2019-03-27T00:32:18.062Z,102228.83
2019-03-27T00:34:51.576Z,102227.23
2019-03-27T00:37:24.995Z,102234.42
2019-03-27T00:39:58.350Z,102231.25
2019-03-27T00:42:31.869Z,102226.53
2019-03-27T00:45:07.551Z,102237.36
2019-03-27T00:47:40.973Z,102235.06
2019-03-27T00:50:14.458Z,102228.98
2019-03-27T00:52:47.802Z,102229.81
2019-03-27T00:55:21.245Z,102228.47
2019-03-27T00:57:54.674Z,102231.77
2019-03-27T01:00:45.951Z,102231.06
2019-03-27T01:03:19.298Z,102241.81
2019-03-27T01:05:52.770Z,102233.52
2019-03-27T01:08:26.126Z,102235.90
2019-03-27T01:10:59.569Z,102237.36
2019-03-27T01:13:33.002Z,102245.84
2019-03-27T01:16:06.443Z,102239.87
2019-03-27T01:18:39.852Z,102244.06
2019-03-27T01:21:13.292Z,102243.46
2019-03-27T01:23:46.674Z,102246.32
2019-03-27T01:26:20.124Z,102246.22
2019-03-27T01:28:53.589Z,102250.00
2019-03-27T01:31:27.044Z,102244.13
2019-03-27T01:34:00.410Z,102251.56
2019-03-27T01:36:33.857Z,102246.16
2019-03-27T01:39:07.362Z,102239.30
2019-03-27T01:41:40.710Z,102251.66
2019-03-27T01:44:16.815Z,102250.36
2019-03-27T01:46:50.209Z,102250.86
2019-03-27T01:49:23.640Z,102256.40
2019-03-27T01:51:57.008Z,102255.90
2019-03-27T01:54:30.451Z,102254.24
2019-03-27T01:57:03.876Z,102254.69
2019-03-27T01:59:37.254Z,102251.56
2019-03-27T02:02:10.715Z,102251.45
2019-03-27T02:04:44.130Z,102251.20
2019-03-27T02:07:17.504Z,102250.45
2019-03-27T02:09:51.001Z,102250.22
2019-03-27T02:12:24.359Z,102253.59
2019-03-27T02:14:57.707Z,102254.69
2019-03-27T02:17:31.149Z,102250.25
2019-03-27T02:20:06.469Z,102261.11
2019-03-27T02:22:40.013Z,102259.03
2019-03-27T02:25:13.489Z,102257.68
2019-03-27T02:27:46.899Z,102262.97
2019-03-27T02:30:20.368Z,102259.39
2019-03-27T02:32:53.797Z,102260.69
2019-03-27T02:35:27.167Z,102261.28
2019-03-27T02:38:00.508Z,102258.39
2019-03-27T02:40:34.122Z,102258.74
2019-03-27T02:43:07.540Z,102266.63
2019-03-27T02:45:40.984Z,102265.71
2019-03-27T02:48:14.353Z,102267.81
2019-03-27T02:50:47.701Z,102274.05
2019-03-27T02:53:21.134Z,102269.61
2019-03-27T02:55:54.499Z,102270.70
2019-03-27T02:58:27.919Z,102268.91
2019-03-27T03:01:01.428Z,102273.40
2019-03-27T03:03:34.760Z,102265.81
2019-03-27T03:06:08.217Z,102264.11
2019-03-27T03:08:41.626Z,102262.33
2019-03-27T03:11:15.075Z,102269.11
2019-03-27T03:13:48.430Z,102272.80
2019-03-27T03:16:21.900Z,102259.97
2019-03-27T03:18:55.245Z,102263.42
2019-03-27T03:21:28.695Z,102267.47
2019-03-27T03:24:02.199Z,102269.36
2019-03-27T03:26:35.631Z,102277.19
2019-03-27T03:29:08.987Z,102266.31
2019-03-27T03:31:42.502Z,102267.56
2019-03-27T03:34:15.866Z,102266.17
2019-03-27T03:36:49.418Z,102267.71
2019-03-27T03:39:22.774Z,102272.55
2019-03-27T03:41:56.283Z,102273.36
2019-03-27T03:44:29.683Z,102277.83
2019-03-27T03:47:03.066Z,102284.02
2019-03-27T03:49:36.489Z,102284.43
2019-03-27T03:52:10.023Z,102281.22
2019-03-27T03:54:43.386Z,102281.67
2019-03-27T03:57:17.350Z,102287.00
2019-03-27T03:59:52.019Z,102287.80
2019-03-27T04:02:26.776Z,102286.55
2019-03-27T04:05:01.209Z,102288.58
2019-03-27T04:07:34.648Z,102282.12
2019-03-27T04:10:08.247Z,102286.60
2019-03-27T04:12:41.693Z,102285.30
2019-03-27T04:15:15.131Z,102290.59
2019-03-27T04:17:48.605Z,102282.45
2019-03-27T04:20:22.045Z,102283.64
2019-03-27T04:22:55.399Z,102288.97
2019-03-27T04:25:28.800Z,102285.73
2019-03-27T04:28:02.232Z,102284.88
2019-03-27T04:30:35.657Z,102280.63
2019-03-27T04:33:09.011Z,102279.34
2019-03-27T04:35:42.427Z,102290.04
2019-03-27T04:38:15.843Z,102282.61
2019-03-27T04:40:49.178Z,102284.72
2019-03-27T04:43:22.661Z,102277.06
2019-03-27T04:45:56.008Z,102278.27
2019-03-27T04:48:29.436Z,102282.89
2019-03-27T04:51:02.784Z,102283.48
2019-03-27T04:53:36.222Z,102280.52
2019-03-27T04:56:09.687Z,102279.62
2019-03-27T04:58:43.256Z,102281.72
2019-03-27T05:01:16.624Z,102288.03
2019-03-27T05:03:50.252Z,102285.70
2019-03-27T05:06:23.577Z,102285.25
2019-03-27T05:08:56.946Z,102292.05
2019-03-27T05:11:30.288Z,102291.96
2019-03-27T05:14:03.633Z,102292.50
2019-03-27T05:16:36.993Z,102296.81
2019-03-27T05:19:10.362Z,102300.89
2019-03-27T05:21:43.775Z,102294.41
2019-03-27T05:24:17.127Z,102298.75
2019-03-27T05:26:50.541Z,102305.03
2019-03-27T05:29:24.054Z,102304.89
2019-03-27T05:31:57.478Z,102309.64
2019-03-27T05:34:30.924Z,102305.25
2019-03-27T05:37:04.491Z,102314.98
2019-03-27T05:39:37.857Z,102309.28
2019-03-27T05:42:11.215Z,102311.12
2019-03-27T05:44:44.570Z,102308.62
2019-03-27T05:47:17.903Z,102312.64
2019-03-27T05:49:51.347Z,102320.61
2019-03-27T05:52:24.833Z,102322.54
2019-03-27T05:54:58.287Z,102322.54
2019-03-27T05:57:31.653Z,102323.22
2019-03-27T06:00:06.520Z,102320.18
2019-03-27T06:02:39.855Z,102318.02
2019-03-27T06:05:13.214Z,102323.27
2019-03-27T06:07:46.662Z,102318.64
2019-03-27T06:10:20.093Z,102332.77
2019-03-27T06:12:53.522Z,102341.80
2019-03-27T06:15:26.959Z,102338.72
2019-03-27T06:18:12.575Z,102342.31
2019-03-27T06:20:35.485Z,102335.77
2019-03-27T06:23:08.841Z,102337.20
2019-03-27T06:25:42.304Z,102339.62
2019-03-27T06:28:15.702Z,102334.95
2019-03-27T06:30:49.075Z,102340.83
2019-03-27T06:33:22.464Z,102343.52
2019-03-27T06:35:55.799Z,102338.16
2019-03-27T06:38:29.227Z,102336.94
2019-03-27T06:41:02.828Z,102335.52
2019-03-27T06:43:36.259Z,102344.17
2019-03-27T06:46:09.737Z,102339.03
2019-03-27T06:48:43.105Z,102337.91
2019-03-27T06:51:16.647Z,102347.12
2019-03-27T06:53:50.093Z,102354.27
2019-03-27T06:56:23.594Z,102353.56
2019-03-27T06:58:56.966Z,102346.52
2019-03-27T07:01:30.382Z,102344.77
2019-03-27T07:04:10.525Z,102348.49
2019-03-27T07:06:39.071Z,102345.45
2019-03-27T07:09:12.607Z,102335.06
2019-03-27T07:11:46.055Z,102339.28
2019-03-27T07:14:19.566Z,102345.62
2019-03-27T07:16:53.041Z,102350.58
2019-03-27T07:19:26.575Z,102351.50
2019-03-27T07:22:00.030Z,102348.58
2019-03-27T07:24:33.438Z,102355.16
2019-03-27T07:27:06.746Z,102346.45
2019-03-27T07:29:40.115Z,102352.19
2019-03-27T07:32:13.617Z,102364.56
2019-03-27T07:34:47.108Z,102357.14
2019-03-27T07:37:20.550Z,102357.14
2019-03-27T07:39:53.911Z,102365.64
2019-03-27T07:42:28.880Z,102368.52
2019-03-27T07:45:02.498Z,102368.52
2019-03-27T07:47:36.017Z,102366.57
2019-03-27T07:50:09.607Z,102373.81
2019-03-27T07:52:43.031Z,102379.78
2019-03-27T07:55:19.557Z,102374.09
2019-03-27T07:57:51.732Z,102374.73
2019-03-27T08:00:25.273Z,102374.73
2019-03-27T08:02:58.782Z,102377.05
2019-03-27T08:05:32.152Z,102373.83
2019-03-27T08:08:05.498Z,102384.28
2019-03-27T08:10:38.926Z,102382.05
2019-03-27T08:13:12.350Z,102383.98
2019-03-27T08:15:45.785Z,102382.16
2019-03-27T08:18:19.214Z,102378.75
2019-03-27T08:20:52.586Z,102381.42
2019-03-27T08:23:27.215Z,102372.27
2019-03-27T08:26:00.669Z,102373.69
2019-03-27T08:28:34.082Z,102372.42
2019-03-27T08:31:07.523Z,102373.91
2019-03-27T08:33:40.884Z,102378.64
2019-03-27T08:36:14.261Z,102383.92
2019-03-27T08:38:47.615Z,102377.00
2019-03-27T08:41:21.045Z,102369.73
2019-03-27T08:43:54.387Z,102377.47
2019-03-27T08:46:27.840Z,102379.52
2019-03-27T08:49:01.180Z,102388.48
2019-03-27T08:51:34.623Z,102388.92
2019-03-27T08:54:08.024Z,102389.75
2019-03-27T08:56:41.405Z,102393.80
2019-03-27T08:59:14.748Z,102388.08
2019-03-27T09:01:48.211Z,102384.66
2019-03-27T09:04:21.673Z,102385.15
2019-03-27T09:06:55.124Z,102387.21
2019-03-27T09:09:28.611Z,102383.55
2019-03-27T09:12:02.945Z,102379.05
2019-03-27T09:14:36.379Z,102390.06
2019-03-27T09:17:09.810Z,102385.87
2019-03-27T09:19:43.634Z,102384.55
2019-03-27T09:22:17.032Z,102385.86
2019-03-27T09:24:50.364Z,102384.81
2019-03-27T09:27:23.815Z,102383.38
2019-03-27T09:29:57.155Z,102376.77
2019-03-27T09:32:30.587Z,102380.19
2019-03-27T09:35:04.587Z,102370.38
2019-03-27T09:37:38.182Z,102375.29
2019-03-27T09:40:11.987Z,102379.48
2019-03-27T09:42:45.358Z,102378.06
2019-03-27T09:45:18.852Z,102365.45
2019-03-27T09:47:52.314Z,102363.95
2019-03-27T09:50:25.686Z,102358.49
2019-03-27T09:52:59.127Z,102363.75
2019-03-27T09:55:32.534Z,102361.17
2019-03-27T09:58:05.978Z,102364.93
2019-03-27T10:00:48.893Z,102373.94
2019-03-27T10:03:22.551Z,102361.95
2019-03-27T10:05:55.976Z,102375.25
2019-03-27T10:08:29.453Z,102365.69
2019-03-27T10:11:02.875Z,102361.69
2019-03-27T10:13:36.288Z,102359.82
2019-03-27T10:16:09.851Z,102361.52
2019-03-27T10:18:43.202Z,102366.36
2019-03-27T10:21:16.656Z,102364.17
2019-03-27T10:23:50.179Z,102366.06
2019-03-27T10:26:23.610Z,102359.28
2019-03-27T10:28:57.055Z,102357.70
2019-03-27T10:31:30.412Z,102362.34
2019-03-27T10:34:06.179Z,102357.61
2019-03-27T10:36:39.516Z,102361.86
2019-03-27T10:39:13.116Z,102363.42
2019-03-27T10:41:46.456Z,102359.92
2019-03-27T10:44:19.845Z,102365.26
2019-03-27T10:46:53.210Z,102363.48
2019-03-27T10:49:26.793Z,102360.88
2019-03-27T10:52:00.165Z,102355.55
2019-03-27T10:54:33.613Z,102350.22
2019-03-27T10:57:06.953Z,102354.12
2019-03-27T10:59:40.416Z,102355.37
2019-03-27T11:02:13.845Z,102356.81
2019-03-27T11:04:47.288Z,102346.77
2019-03-27T11:07:20.738Z,102353.84
2019-03-27T11:09:54.153Z,102360.38
2019-03-27T11:12:27.602Z,102357.74
2019-03-27T11:15:00.960Z,102368.73
2019-03-27T11:17:34.568Z,102369.23
2019-03-27T11:20:08.342Z,102358.08
2019-03-27T11:22:41.800Z,102364.78
2019-03-27T11:25:15.287Z,102360.71
2019-03-27T11:27:48.694Z,102352.81
2019-03-27T11:30:25.229Z,102357.19
2019-03-27T11:32:58.596Z,102362.80
2019-03-27T11:35:31.941Z,102361.02
2019-03-27T11:38:05.483Z,102359.39
2019-03-27T11:40:38.802Z,102347.59
2019-03-27T11:43:12.230Z,102350.68
2019-03-27T11:45:48.618Z,102347.19
2019-03-27T11:48:20.822Z,102352.78
2019-03-27T11:50:54.222Z,102347.32
2019-03-27T11:53:27.681Z,102351.78
2019-03-27T11:56:03.357Z,102350.32
2019-03-27T11:58:36.123Z,102345.84
2019-03-27T12:01:09.613Z,102354.55
2019-03-27T12:03:43.120Z,102348.27
2019-03-27T12:06:16.640Z,102343.98
2019-03-27T12:08:50.911Z,102342.23
2019-03-27T12:11:24.495Z,102344.53
2019-03-27T12:13:57.882Z,102343.51
2019-03-27T12:16:31.425Z,102341.97
2019-03-27T12:19:04.812Z,102342.59
2019-03-27T12:21:38.306Z,102340.83
2019-03-27T12:24:11.791Z,102332.11
2019-03-27T12:26:45.143Z,102333.73
2019-03-27T12:29:18.536Z,102331.20
2019-03-27T12:31:51.999Z,102334.13
2019-03-27T12:34:25.361Z,102332.92
2019-03-27T12:36:58.779Z,102329.50
2019-03-27T12:39:32.305Z,102325.05
2019-03-27T12:42:05.730Z,102329.45
2019-03-27T12:44:39.096Z,102325.45
2019-03-27T12:47:12.603Z,102329.41
2019-03-27T12:49:45.927Z,102325.75
2019-03-27T12:52:19.329Z,102325.91
2019-03-27T12:54:53.596Z,102327.28
2019-03-27T12:57:27.001Z,102329.45
2019-03-27T13:00:00.392Z,102326.55
2019-03-27T13:02:33.848Z,102319.97
2019-03-27T13:05:07.833Z,102317.50
2019-03-27T13:07:49.846Z,102318.24
2019-03-27T13:10:16.424Z,102323.45
2019-03-27T13:12:50.073Z,102319.05
2019-03-27T13:15:23.438Z,102313.83
2019-03-27T13:17:57.245Z,102304.02
2019-03-27T13:20:30.659Z,102299.79
2019-03-27T13:23:04.587Z,102300.23
2019-03-27T13:25:37.934Z,102304.63
2019-03-27T13:28:11.361Z,102312.06
2019-03-27T13:30:44.732Z,102304.08
2019-03-27T13:33:18.156Z,102308.48
2019-03-27T13:35:51.632Z,102309.39
2019-03-27T13:38:25.047Z,102317.27
2019-03-27T13:40:58.398Z,102310.55
2019-03-27T13:43:31.726Z,102307.69
2019-03-27T13:46:05.280Z,102299.62
2019-03-27T13:48:38.683Z,102302.23
2019-03-27T13:51:12.046Z,102293.93
2019-03-27T13:53:45.486Z,102296.25
2019-03-27T13:56:18.912Z,102290.55
2019-03-27T13:58:52.253Z,102290.05
2019-03-27T14:01:25.891Z,102294.91
2019-03-27T14:03:59.209Z,102287.25
2019-03-27T14:06:32.678Z,102285.55
2019-03-27T14:09:07.658Z,102283.66
2019-03-27T14:11:41.172Z,102286.95
2019-03-27T14:14:14.653Z,102283.86
2019-03-27T14:16:48.167Z,102281.23
2019-03-27T14:19:21.631Z,102284.77
2019-03-27T14:21:55.349Z,102278.63
2019-03-27T14:24:29.171Z,102286.91
2019-03-27T14:27:02.596Z,102284.75
2019-03-27T14:29:36.016Z,102281.71
2019-03-27T14:32:09.443Z,102281.30
2019-03-27T14:34:42.870Z,102279.38
2019-03-27T14:37:16.255Z,102278.20
2019-03-27T14:39:49.616Z,102274.70
2019-03-27T14:42:22.980Z,102270.35
2019-03-27T14:44:56.307Z,102274.28
2019-03-27T14:47:29.695Z,102271.63
2019-03-27T14:50:03.990Z,102272.03
2019-03-27T14:52:37.445Z,102271.16
2019-03-27T14:55:11.001Z,102270.28
2019-03-27T14:57:44.494Z,102272.51
2019-03-27T15:00:18.007Z,102274.66
2019-03-27T15:02:51.514Z,102278.12
2019-03-27T15:05:24.848Z,102275.94
2019-03-27T15:07:58.348Z,102283.76
2019-03-27T15:10:31.717Z,102274.44
2019-03-27T15:13:05.142Z,102276.73
2019-03-27T15:15:38.593Z,102275.84
2019-03-27T15:18:11.935Z,102276.70
2019-03-27T15:20:45.420Z,102278.31
2019-03-27T15:23:18.797Z,102276.08
2019-03-27T15:25:52.290Z,102281.31
2019-03-27T15:28:25.799Z,102272.13
2019-03-27T15:30:59.301Z,102281.77
2019-03-27T15:33:32.691Z,102276.51
2019-03-27T15:36:06.184Z,102278.22
2019-03-27T15:38:39.635Z,102279.90
2019-03-27T15:41:13.075Z,102278.72
2019-03-27T15:43:46.432Z,102273.64
2019-03-27T15:46:19.864Z,102274.97
2019-03-27T15:48:53.304Z,102272.70
2019-03-27T15:51:26.656Z,102281.52
2019-03-27T15:54:00.023Z,102279.38
2019-03-27T15:56:33.449Z,102282.52
2019-03-27T15:59:06.880Z,102280.33
2019-03-27T16:01:40.385Z,102281.66
2019-03-27T16:04:13.807Z,102280.71
2019-03-27T16:06:47.267Z,102280.78
2019-03-27T16:09:21.132Z,102283.46
2019-03-27T16:11:54.511Z,102282.58
2019-03-27T16:14:27.873Z,102281.21
2019-03-27T16:17:12.719Z,102284.77
2019-03-27T16:19:36.442Z,102283.02
2019-03-27T16:22:09.878Z,102277.37
2019-03-27T16:24:43.291Z,102280.44
2019-03-27T16:27:16.728Z,102283.50
2019-03-27T16:29:50.252Z,102278.25
2019-03-27T16:32:23.755Z,102279.56
2019-03-27T16:34:57.100Z,102281.75
2019-03-27T16:37:30.609Z,102280.41
2019-03-27T16:40:07.593Z,102282.20
2019-03-27T16:42:41.038Z,102276.92
2019-03-27T16:45:14.632Z,102280.45
2019-03-27T16:47:48.058Z,102276.91
2019-03-27T16:50:21.473Z,102278.67
2019-03-27T16:53:03.355Z,102284.39
2019-03-27T16:55:30.166Z,102283.91
2019-03-27T16:58:03.696Z,102289.61
2019-03-27T17:00:37.130Z,102290.39
2019-03-27T17:03:10.488Z,102295.42
2019-03-27T17:05:53.932Z,102297.16
2019-03-27T17:08:19.060Z,102299.80
2019-03-27T17:10:52.417Z,102302.78
2019-03-27T17:13:25.861Z,102304.46
2019-03-27T17:15:59.315Z,102307.05
2019-03-27T17:18:32.711Z,102301.75
2019-03-27T17:21:06.165Z,102310.92
2019-03-27T17:23:39.528Z,102306.43
2019-03-27T17:26:12.926Z,102308.63
2019-03-27T17:28:46.429Z,102317.28
2019-03-27T17:31:19.919Z,102318.64
2019-03-27T17:33:54.416Z,102311.59
2019-03-27T17:36:27.881Z,102326.43
2019-03-27T17:39:01.346Z,102328.44
2019-03-27T17:41:34.690Z,102331.02
2019-03-27T17:44:08.088Z,102334.05
2019-03-27T17:46:41.577Z,102327.38
2019-03-27T17:49:15.064Z,102337.77
2019-03-27T17:51:48.472Z,102324.58
2019-03-27T17:54:21.940Z,102330.23
2019-03-27T17:56:55.434Z,102335.49
2019-03-27T17:59:28.888Z,102335.86
2019-03-27T18:02:02.324Z,102340.03
2019-03-27T18:04:35.679Z,102342.05
2019-03-27T18:07:09.135Z,102349.30
2019-03-27T18:09:42.601Z,102350.18
2019-03-27T18:12:16.924Z,102352.61
2019-03-27T18:14:50.275Z,102347.20
2019-03-27T18:17:23.651Z,102352.53
2019-03-27T18:19:57.049Z,102357.20
2019-03-27T18:22:30.494Z,102348.77
2019-03-27T18:25:04.773Z,102353.43
2019-03-27T18:27:38.219Z,102346.81
2019-03-27T18:30:12.150Z,102357.93
2019-03-27T18:32:45.740Z,102356.68
2019-03-27T18:35:19.086Z,102362.86
2019-03-27T18:37:52.488Z,102370.05
2019-03-27T18:40:25.926Z,102376.09
2019-03-27T18:42:59.365Z,102371.45
2019-03-27T18:45:32.743Z,102379.08
2019-03-27T18:48:06.185Z,102387.49
2019-03-27T18:50:39.554Z,102392.95
2019-03-27T18:53:12.932Z,102396.28
2019-03-27T18:55:46.284Z,102390.70
2019-03-27T18:58:19.743Z,102393.59
2019-03-27T19:00:53.141Z,102396.55
2019-03-27T19:03:26.495Z,102397.11
2019-03-27T19:05:59.916Z,102401.74
2019-03-27T19:08:36.252Z,102404.38
2019-03-27T19:11:09.753Z,102406.84
2019-03-27T19:13:43.266Z,102405.81
2019-03-27T19:16:16.748Z,102413.03
2019-03-27T19:18:50.128Z,102423.66
2019-03-27T19:21:23.573Z,102421.53
2019-03-27T19:23:56.970Z,102430.66
2019-03-27T19:26:30.403Z,102426.37
2019-03-27T19:29:03.847Z,102431.38
2019-03-27T19:31:37.261Z,102431.86
2019-03-27T19:34:10.712Z,102432.11
2019-03-27T19:36:44.123Z,102430.57
2019-03-27T19:39:17.601Z,102437.95
2019-03-27T19:41:51.027Z,102439.47
2019-03-27T19:44:24.490Z,102443.55
2019-03-27T19:46:58.034Z,102440.98
2019-03-27T19:49:31.483Z,102438.27
2019-03-27T19:52:04.915Z,102438.77
2019-03-27T19:54:38.321Z,102441.86
2019-03-27T19:57:11.678Z,102434.03
2019-03-27T19:59:45.137Z,102439.63
2019-03-27T20:02:18.631Z,102442.36
2019-03-27T20:04:52.072Z,102443.34
2019-03-27T20:07:35.314Z,102440.84
2019-03-27T20:10:00.717Z,102436.93
2019-03-27T20:12:34.137Z,102442.72
2019-03-27T20:15:12.449Z,102438.96
2019-03-27T20:17:43.863Z,102441.47
2019-03-27T20:20:17.343Z,102442.07
2019-03-27T20:22:50.896Z,102453.35
2019-03-27T20:25:24.345Z,102452.92
2019-03-27T20:27:57.719Z,102454.75
2019-03-27T20:30:31.249Z,102445.05
2019-03-27T20:33:04.895Z,102448.58
2019-03-27T20:35:38.292Z,102452.94
2019-03-27T20:38:11.828Z,102456.47
2019-03-27T20:40:45.369Z,102460.83
2019-03-27T20:43:18.800Z,102458.59
2019-03-27T20:45:52.236Z,102460.18
2019-03-27T20:48:25.654Z,102453.86
2019-03-27T20:50:59.050Z,102457.45
2019-03-27T20:53:32.541Z,102459.34
2019-03-27T20:56:05.916Z,102464.20
2019-03-27T20:58:39.345Z,102469.67
2019-03-27T21:01:12.811Z,102469.59
2019-03-27T21:03:46.153Z,102470.98
2019-03-27T21:06:19.613Z,102465.13
2019-03-27T21:08:53.190Z,102471.77
2019-03-27T21:11:26.613Z,102475.26
2019-03-27T21:13:59.967Z,102474.37
2019-03-27T21:16:33.453Z,102475.83
2019-03-27T21:19:06.913Z,102478.69
2019-03-27T21:21:41.940Z,102483.69
2019-03-27T21:24:15.452Z,102477.70
2019-03-27T21:26:48.851Z,102480.93
2019-03-27T21:29:22.272Z,102484.19
2019-03-27T21:31:55.631Z,102480.80
2019-03-27T21:34:28.985Z,102478.45
2019-03-27T21:37:02.360Z,102472.84
2019-03-27T21:39:35.841Z,102478.23
2019-03-27T21:42:09.353Z,102487.78
2019-03-27T21:44:42.806Z,102479.85
2019-03-27T21:47:16.142Z,102479.00
2019-03-27T21:49:49.534Z,102472.70
2019-03-27T21:52:22.943Z,102475.05
2019-03-27T21:54:56.289Z,102473.58
2019-03-27T21:57:29.656Z,102477.02
2019-03-27T22:00:03.091Z,102478.05
2019-03-27T22:02:36.445Z,102479.18
2019-03-27T22:05:09.916Z,102480.66
2019-03-27T22:07:43.332Z,102493.34
2019-03-27T22:10:16.837Z,102487.97
2019-03-27T22:12:50.268Z,102491.73
2019-03-27T22:15:23.784Z,102491.61
2019-03-27T22:17:57.193Z,102493.08
2019-03-27T22:20:30.598Z,102497.83
2019-03-27T22:23:04.080Z,102501.25
2019-03-27T22:25:37.564Z,102496.95
2019-03-27T22:28:10.978Z,102500.77
2019-03-27T22:30:44.417Z,102498.16
2019-03-27T22:33:17.793Z,102499.36
2019-03-27T22:35:51.209Z,102508.41
2019-03-27T22:38:24.653Z,102505.73
2019-03-27T22:40:58.075Z,102508.77
2019-03-27T22:43:31.500Z,102512.14
2019-03-27T22:46:04.972Z,102514.71
2019-03-27T22:48:38.327Z,102513.09
2019-03-27T22:51:11.716Z,102515.81
2019-03-27T22:53:45.134Z,102508.69
2019-03-27T22:56:18.561Z,102514.43
2019-03-27T22:58:51.902Z,102509.05
2019-03-27T23:01:25.284Z,102502.98
2019-03-27T23:03:58.617Z,102509.83
2019-03-27T23:06:31.958Z,102515.06
2019-03-27T23:09:05.646Z,102518.13
2019-03-27T23:11:39.079Z,102514.16
2019-03-27T23:14:12.419Z,102515.97
2019-03-27T23:16:45.858Z,102521.72
2019-03-27T23:19:19.228Z,102517.73
2019-03-27T23:21:52.713Z,102516.42
2019-03-27T23:24:26.077Z,102515.53
2019-03-27T23:26:59.435Z,102520.43
2019-03-27T23:29:32.862Z,102515.93
2019-03-27T23:32:06.204Z,102514.13
2019-03-27T23:34:39.632Z,102512.97
2019-03-27T23:37:13.053Z,102509.53
2019-03-27T23:39:46.486Z,102515.92
2019-03-27T23:42:19.940Z,102510.72
2019-03-27T23:44:53.367Z,102511.74
2019-03-27T23:47:26.712Z,102514.08
2019-03-27T23:50:00.054Z,102511.78
2019-03-27T23:52:33.421Z,102507.14
2019-03-27T23:55:07.711Z,102503.97
2019-03-27T23:57:41.125Z,102501.86
